Time;durP1;ratioP1;P1;durP2;ratioP2;P2;SDS_P1;SDS_P2;PMS_P1;PMS_P2;Temp;Humidity;BMP_temperature;BMP_pressure;BME280_temperature;BME280_humidity;BME280_pressure;Samples;Min_cycle;Max_cycle;Signal;HPM_P1;HPM_P2
2022/06/30 00:00:30;;;;;;;6.25;4.07;;;;;;;-148.88;79.27;74830.78;5018464;28;20089;-82
2022/06/30 00:02:55;;;;;;;5.53;4.15;;;;;;;-148.88;79.81;74832.81;5017427;28;20033;-82
2022/06/30 00:05:21;;;;;;;5.25;4.07;;;;;;;-148.88;79.61;74840.94;4999359;28;20509;-82
2022/06/30 00:07:46;;;;;;;5.15;3.90;;;;;;;-148.88;80.08;74855.16;4997407;23;20054;-84
2022/06/30 00:10:12;;;;;;;8.30;4.22;;;;;;;-148.88;80.68;74855.16;4957795;28;20034;-85
2022/06/30 00:12:40;;;;;;;7.05;4.25;;;;;;;-148.88;81.13;74849.06;4956062;29;20118;-85
2022/06/30 00:15:07;;;;;;;6.20;4.45;;;;;;;-148.88;81.24;74859.22;4954787;29;20027;-85
2022/06/30 00:17:33;;;;;;;5.65;4.35;;;;;;;-148.88;80.96;74863.28;4951148;28;20099;-85
2022/06/30 00:19:59;;;;;;;5.53;4.35;;;;;;;-148.88;81.51;74869.38;4951669;28;20103;-85
2022/06/30 00:22:25;;;;;;;5.60;3.92;;;;;;;-148.88;81.02;74865.31;4939054;29;20031;-86
2022/06/30 00:24:50;;;;;;;6.32;3.92;;;;;;;-148.88;80.72;74871.41;4955936;29;20023;-86
2022/06/30 00:27:16;;;;;;;6.68;4.15;;;;;;;-148.88;80.77;74871.41;4956351;29;20039;-86
2022/06/30 00:29:41;;;;;;;5.53;3.85;;;;;;;-148.88;80.77;74871.41;4954093;29;20035;-84
2022/06/30 00:32:07;;;;;;;4.68;3.65;;;;;;;-148.88;80.37;74871.41;4938210;29;20064;-84
2022/06/30 00:34:32;;;;;;;5.38;3.85;;;;;;;-148.88;80.15;74869.38;4954047;29;20035;-85
2022/06/30 00:36:57;;;;;;;6.25;3.85;;;;;;;-148.88;81.09;74869.38;4954117;28;20114;-84
2022/06/30 00:39:23;;;;;;;5.25;3.90;;;;;;;-148.88;80.94;74869.38;4953897;29;20070;-84
2022/06/30 00:41:49;;;;;;;4.15;3.42;;;;;;;-148.88;81.61;74871.41;4939131;29;20435;-84
2022/06/30 00:44:14;;;;;;;5.03;3.75;;;;;;;-148.88;81.20;74867.34;4953734;29;20024;-85
2022/06/30 00:46:40;;;;;;;4.35;3.67;;;;;;;-148.88;80.87;74867.34;4938777;29;20028;-84
2022/06/30 00:49:06;;;;;;;6.28;4.38;;;;;;;-148.88;80.79;74867.34;4938721;29;20197;-84
2022/06/30 00:51:32;;;;;;;5.25;3.88;;;;;;;-148.88;81.26;74869.38;4937784;29;20084;-85
2022/06/30 00:54:01;;;;;;;7.05;4.00;;;;;;;-148.88;81.52;74873.44;4938575;29;20023;-84
2022/06/30 00:56:27;;;;;;;6.05;3.88;;;;;;;-148.88;81.31;74871.41;4953909;29;20032;-84
2022/06/30 00:58:57;;;;;;;7.32;4.00;;;;;;;-148.88;81.18;74875.47;4937889;29;20059;-85
2022/06/30 01:01:24;;;;;;;5.43;3.80;;;;;;;-148.88;81.45;74877.50;4939023;29;20114;-85
2022/06/30 01:03:50;;;;;;;4.50;3.83;;;;;;;-148.88;81.89;74877.50;4953440;29;20031;-84
2022/06/30 01:06:17;;;;;;;5.88;4.20;;;;;;;-148.88;81.48;74883.59;4954078;29;20030;-86
2022/06/30 01:08:43;;;;;;;6.40;4.43;;;;;;;-148.88;82.14;74891.72;4953134;28;20068;-82
2022/06/30 01:13:53;;;;;;;6.95;4.38;;;;;;;-148.88;82.58;74893.75;4939738;29;20039;-83
2022/06/30 01:16:19;;;;;;;8.15;4.00;;;;;;;-148.88;83.01;74903.91;4953605;29;20023;-85
2022/06/30 01:18:45;;;;;;;7.78;4.07;;;;;;;-148.88;82.82;74918.13;4938469;29;20475;-84
2022/06/30 01:21:10;;;;;;;7.80;4.00;;;;;;;-148.88;83.27;74924.22;4938417;29;20043;-85
2022/06/30 01:23:35;;;;;;;5.40;4.25;;;;;;;-148.88;83.50;74922.19;4953064;29;20510;-85
2022/06/30 01:26:01;;;;;;;7.18;4.05;;;;;;;-148.88;83.42;74916.09;4937126;29;20447;-85
2022/06/30 01:28:26;;;;;;;5.85;3.95;;;;;;;-148.88;83.68;74916.09;4953285;28;20031;-84
2022/06/30 01:30:52;;;;;;;11.63;4.32;;;;;;;-148.88;83.51;74901.88;4952991;29;20032;-82
2022/06/30 01:33:17;;;;;;;4.85;3.65;;;;;;;-148.88;83.88;74895.78;4952197;29;20524;-85
2022/06/30 01:35:42;;;;;;;4.63;4.13;;;;;;;-148.88;84.17;74905.94;4938110;29;20403;-85
2022/06/30 01:38:08;;;;;;;5.43;3.97;;;;;;;-148.88;84.44;74901.88;4952675;29;20030;-86
2022/06/30 01:40:35;;;;;;;5.50;4.30;;;;;;;-148.88;84.77;74905.94;4937927;29;20027;-85
2022/06/30 01:43:02;;;;;;;7.35;4.72;;;;;;;-148.88;84.75;74907.97;4936920;29;20034;-84
2022/06/30 01:45:28;;;;;;;7.05;4.45;;;;;;;-148.88;84.26;74907.97;4938447;29;20478;-85
2022/06/30 01:47:53;;;;;;;5.72;4.43;;;;;;;-148.88;84.46;74910.00;4952499;29;20047;-83
2022/06/30 01:50:21;;;;;;;7.15;4.28;;;;;;;-148.88;84.38;74916.09;4952596;29;20123;-85
2022/06/30 01:52:47;;;;;;;7.55;4.47;;;;;;;-148.88;84.82;74907.97;4952556;29;20036;-85
2022/06/30 01:55:13;;;;;;;5.82;4.63;;;;;;;-148.88;85.08;74916.09;4952549;29;20043;-85
2022/06/30 01:57:39;;;;;;;8.63;4.53;;;;;;;-148.88;85.34;74910.00;4937114;29;20490;-83
2022/06/30 02:00:10;;;;;;;7.15;4.40;;;;;;;-148.88;84.97;74918.13;4952390;29;20019;-87
2022/06/30 02:02:36;;;;;;;5.72;4.22;;;;;;;-148.88;84.68;74916.09;4936294;29;20027;-85
2022/06/30 02:05:02;;;;;;;5.82;4.03;;;;;;;-148.88;85.77;74916.09;4952146;29;20024;-87
2022/06/30 02:07:28;;;;;;;5.95;4.53;;;;;;;-148.88;85.34;74918.13;4937617;29;20035;-86
2022/06/30 02:09:53;;;;;;;4.65;3.97;;;;;;;-148.88;85.44;74920.16;4936065;29;20281;-84
2022/06/30 02:15:04;;;;;;;5.38;4.15;;;;;;;-148.88;85.96;74918.13;4937781;29;20458;-86
2022/06/30 02:17:29;;;;;;;5.95;4.25;;;;;;;-148.88;85.87;74924.22;4951716;28;20028;-87
2022/06/30 02:19:55;;;;;;;7.28;4.45;;;;;;;-148.88;85.89;74930.31;4951876;29;20119;-89
2022/06/30 02:22:20;;;;;;;6.47;4.50;;;;;;;-148.88;85.85;74932.34;4936080;29;20050;-86
2022/06/30 02:24:45;;;;;;;5.07;4.10;;;;;;;-148.88;86.10;74932.34;4952134;29;20024;-86
2022/06/30 02:27:11;;;;;;;6.45;4.10;;;;;;;-148.88;85.96;74936.41;4937151;29;20055;-86
2022/06/30 02:29:36;;;;;;;4.68;4.15;;;;;;;-148.88;85.64;74940.47;4952559;29;20028;-86
2022/06/30 02:32:03;;;;;;;7.43;4.10;;;;;;;-148.88;86.25;74944.53;4936250;29;20099;-87
2022/06/30 02:34:29;;;;;;;4.85;3.97;;;;;;;-148.88;86.64;74952.63;4936352;29;20023;-86
2022/06/30 02:36:55;;;;;;;5.90;4.07;;;;;;;-148.88;86.79;74952.63;4951796;29;20031;-85
2022/06/30 02:39:21;;;;;;;7.18;4.97;;;;;;;-148.88;86.72;74952.63;4956335;29;20027;-86
2022/06/30 02:41:46;;;;;;;5.90;4.10;;;;;;;-148.88;86.86;74952.63;4958872;28;20039;-86
2022/06/30 02:44:11;;;;;;;7.97;4.68;;;;;;;-148.88;86.44;74956.69;4975837;28;20092;-88
2022/06/30 02:46:40;;;;;;;7.15;3.88;;;;;;;-148.88;86.45;74954.66;4954567;28;20410;-89
2022/06/30 02:49:05;;;;;;;6.57;4.35;;;;;;;-148.88;86.23;74966.84;4938600;29;20032;-88
2022/06/30 02:51:31;;;;;;;4.57;4.07;;;;;;;-148.88;86.21;74968.88;4952461;29;20034;-88
2022/06/30 02:53:56;;;;;;;5.32;4.40;;;;;;;-148.88;85.98;74970.91;4951985;29;20031;-86
2022/06/30 02:56:22;;;;;;;6.45;4.53;;;;;;;-148.88;86.38;74972.94;4936260;29;20426;-85
2022/06/30 02:58:47;;;;;;;5.25;4.30;;;;;;;-148.88;86.65;74989.19;4936177;29;20483;-86
2022/06/30 03:01:13;;;;;;;5.20;4.50;;;;;;;-148.88;87.47;74985.13;4937158;29;20561;-87
2022/06/30 03:03:39;;;;;;;7.22;4.65;;;;;;;-148.88;88.53;74981.06;4937843;29;20398;-88
2022/06/30 03:06:04;;;;;;;6.47;5.20;;;;;;;-148.88;89.18;74989.19;4952470;29;20489;-88
2022/06/30 03:08:30;;;;;;;7.15;5.40;;;;;;;-148.88;88.79;74981.06;4951232;29;20076;-86
2022/06/30 03:10:55;;;;;;;6.43;5.20;;;;;;;-148.88;89.16;74972.94;4937230;29;20034;-87
2022/06/30 03:13:20;;;;;;;9.05;4.88;;;;;;;-148.88;89.12;74974.97;4951317;29;20403;-85
2022/06/30 03:15:47;;;;;;;6.22;4.80;;;;;;;-148.88;89.06;74985.13;4952310;29;20063;-88
2022/06/30 03:18:12;;;;;;;6.40;4.55;;;;;;;-148.88;89.05;74989.19;4951600;28;20459;-87
2022/06/30 03:20:37;;;;;;;5.40;4.65;;;;;;;-148.88;89.58;74989.19;4951904;29;20106;-85
2022/06/30 03:23:03;;;;;;;6.40;4.70;;;;;;;-148.88;89.49;74993.25;4935956;29;20055;-87
2022/06/30 03:25:28;;;;;;;6.07;4.80;;;;;;;-148.88;89.87;74995.28;4951332;29;20031;-86
2022/06/30 03:27:53;;;;;;;7.97;4.90;;;;;;;-148.88;90.07;74989.19;4951239;28;20031;-87
2022/06/30 03:30:19;;;;;;;8.13;4.80;;;;;;;-148.88;89.94;74991.22;4935263;29;20032;-86
2022/06/30 03:32:44;;;;;;;7.82;4.88;;;;;;;-148.88;90.03;74989.19;4935133;29;20059;-86
2022/06/30 03:35:12;;;;;;;6.75;4.68;;;;;;;-148.88;90.07;74995.28;4935346;29;20513;-86
2022/06/30 03:37:38;;;;;;;6.07;4.75;;;;;;;-148.88;90.35;74997.31;4934966;29;20024;-85
2022/06/30 03:40:03;;;;;;;5.63;4.55;;;;;;;-148.88;90.34;74993.25;4950932;29;20027;-87
2022/06/30 03:42:29;;;;;;;6.82;5.00;;;;;;;-148.88;90.96;75013.56;4934880;29;20031;-88
2022/06/30 03:44:54;;;;;;;8.25;4.97;;;;;;;-148.88;91.12;75005.44;4935488;29;20024;-86
2022/06/30 03:47:19;;;;;;;6.70;4.75;;;;;;;-148.88;91.32;75009.50;4950456;28;20055;-86
2022/06/30 03:49:45;;;;;;;6.57;4.53;;;;;;;-148.88;91.04;75005.44;4935491;29;20090;-85
2022/06/30 03:52:10;;;;;;;7.20;5.10;;;;;;;-148.88;91.53;74993.25;4934591;29;20024;-86
2022/06/30 03:54:36;;;;;;;6.30;4.97;;;;;;;-148.88;91.52;74987.16;4934763;29;20383;-84
2022/06/30 03:57:02;;;;;;;7.40;5.15;;;;;;;-148.88;91.67;74993.25;4938289;29;20023;-84
2022/06/30 03:59:27;;;;;;;5.47;4.57;;;;;;;-148.88;91.47;74987.16;4938803;29;20087;-85
2022/06/30 04:01:52;;;;;;;7.43;4.88;;;;;;;-148.88;91.72;74985.13;4954663;29;20024;-85
2022/06/30 04:04:18;;;;;;;6.03;4.72;;;;;;;-148.88;91.89;74983.09;4954386;29;20031;-85
2022/06/30 04:06:43;;;;;;;6.95;5.20;;;;;;;-148.88;91.97;74989.19;4938220;29;20179;-85
2022/06/30 04:09:08;;;;;;;5.82;4.80;;;;;;;-148.88;91.63;74985.13;4940047;29;20459;-85
2022/06/30 04:11:34;;;;;;;8.90;4.90;;;;;;;-148.88;91.72;74977.00;4938024;29;20043;-86
2022/06/30 04:14:00;;;;;;;5.45;4.50;;;;;;;-148.88;91.74;74979.03;4938209;29;20450;-86
2022/06/30 04:16:25;;;;;;;9.55;5.32;;;;;;;-148.88;91.73;74981.06;4953855;29;20027;-87
2022/06/30 04:18:50;;;;;;;5.70;4.65;;;;;;;-148.88;91.63;74977.00;4953840;28;20030;-86
2022/06/30 04:21:16;;;;;;;6.47;4.68;;;;;;;-148.88;91.75;74960.75;4938109;29;20058;-88
2022/06/30 04:23:43;;;;;;;8.32;5.00;;;;;;;-148.88;91.98;74952.63;4953830;29;20032;-87
2022/06/30 04:26:09;;;;;;;6.32;4.40;;;;;;;-148.88;91.52;74948.56;4953861;29;20030;-86
2022/06/30 04:28:34;;;;;;;9.13;4.55;;;;;;;-148.88;91.20;74940.47;4953468;28;20039;-87
2022/06/30 04:33:43;;;;;;;;;;;;;;;-148.88;91.34;74930.31;4939988;29;20442;-85
2022/06/30 04:36:09;;;;;;;6.75;4.97;;;;;;;-148.88;90.65;74932.34;4954354;29;20354;-86
2022/06/30 04:38:34;;;;;;;6.05;4.25;;;;;;;-148.88;90.55;74928.28;4938671;29;20035;-86
2022/06/30 04:43:44;;;;;;;6.15;4.78;;;;;;;-148.88;90.90;74916.09;4939445;29;20095;-86
2022/06/30 04:46:10;;;;;;;5.88;4.75;;;;;;;-148.88;91.30;74903.91;4938834;29;20031;-86
2022/06/30 04:48:36;;;;;;;6.30;5.20;;;;;;;-148.88;91.16;74907.97;4937439;29;20032;-86
2022/06/30 04:51:01;;;;;;;5.85;4.95;;;;;;;-148.88;90.39;74905.94;4953357;29;20404;-85
2022/06/30 04:53:27;;;;;;;9.57;5.05;;;;;;;-148.88;90.34;74895.78;4953406;29;20035;-87
2022/06/30 04:55:52;;;;;;;8.93;5.05;;;;;;;-148.88;90.64;74891.72;4954238;29;20027;-84
2022/06/30 04:58:20;;;;;;;6.50;5.00;;;;;;;-148.88;90.06;74889.69;4937402;29;20028;-85
2022/06/30 05:00:45;;;;;;;5.82;4.57;;;;;;;-148.88;89.49;74903.91;4937470;29;20483;-87
2022/06/30 05:03:11;;;;;;;6.13;4.80;;;;;;;-148.88;89.84;74907.97;4953315;29;20039;-86
2022/06/30 05:05:36;;;;;;;10.05;5.15;;;;;;;-148.88;89.61;74901.88;4953266;29;20132;-86
2022/06/30 05:08:01;;;;;;;5.35;4.40;;;;;;;-148.88;90.27;74891.72;4935898;29;20067;-85
2022/06/30 05:10:29;;;;;;;7.32;5.57;;;;;;;-148.88;90.12;74889.69;4952831;29;20034;-86
2022/06/30 05:12:54;;;;;;;7.57;4.90;;;;;;;-148.88;90.63;74883.59;4936747;29;20031;-86
2022/06/30 05:15:20;;;;;;;6.20;5.50;;;;;;;-148.88;91.31;74885.63;4952896;29;20030;-86
2022/06/30 05:17:45;;;;;;;7.35;5.80;;;;;;;-148.88;91.38;74877.50;4953157;28;20359;-86
2022/06/30 05:20:13;;;;;;;7.78;5.63;;;;;;;-148.88;90.82;74867.34;4952799;29;20019;-86
2022/06/30 05:22:39;;;;;;;6.13;5.13;;;;;;;-148.88;90.65;74861.25;4936798;29;20019;-86
2022/06/30 05:27:49;;;;;;;7.50;5.43;;;;;;;-148.88;89.84;74842.97;4938057;29;20034;-86
2022/06/30 05:30:18;;;;;;;6.30;5.30;;;;;;;-148.88;89.56;74836.88;4936920;29;20114;-86
2022/06/30 05:32:44;;;;;;;5.90;5.20;;;;;;;-148.88;89.39;74824.69;4936480;29;20475;-86
2022/06/30 05:35:09;;;;;;;7.50;5.68;;;;;;;-148.88;89.49;74822.66;4936672;29;20497;-86
2022/06/30 05:37:35;;;;;;;9.23;5.55;;;;;;;-148.88;88.95;74814.53;4952392;28;20024;-87
2022/06/30 05:40:02;;;;;;;7.50;5.60;;;;;;;-148.88;88.59;74806.44;4938750;29;20026;-87
2022/06/30 05:42:28;;;;;;;7.45;5.20;;;;;;;-148.88;88.40;74798.31;4952218;29;20031;-89
2022/06/30 05:44:54;;;;;;;10.35;5.00;;;;;;;-148.88;88.96;74794.25;4952951;29;20027;-85
2022/06/30 05:47:19;;;;;;;6.57;4.85;;;;;;;-148.88;88.80;74790.19;4952042;28;20019;-86
2022/06/30 05:49:44;;;;;;;7.32;4.95;;;;;;;-148.88;89.19;74782.06;4952180;29;20091;-86
2022/06/30 05:52:10;;;;;;;7.22;5.03;;;;;;;-148.88;89.40;74771.91;4936594;29;20050;-86
2022/06/30 05:54:35;;;;;;;6.30;4.75;;;;;;;-148.88;89.36;74767.84;4952628;29;20502;-85
2022/06/30 05:57:01;;;;;;;6.05;4.85;;;;;;;-148.88;89.38;74761.75;4952217;28;20478;-86
2022/06/30 05:59:27;;;;;;;7.65;4.93;;;;;;;-148.88;89.38;74757.69;4936630;29;20136;-86
2022/06/30 06:01:52;;;;;;;6.88;5.28;;;;;;;-148.88;90.51;74747.53;4952409;29;20069;-84
2022/06/30 06:04:20;;;;;;;6.40;5.10;;;;;;;-148.88;90.83;74745.50;4936270;29;20478;-86
2022/06/30 06:09:11;;;;;;;5.75;4.60;;;;;;;-148.88;91.33;74737.38;4996964;23;20078;-81
2022/06/30 06:11:37;;;;;;;10.82;5.38;;;;;;;-148.88;91.37;74731.28;4975322;28;20351;-80
2022/06/30 06:14:02;;;;;;;8.35;5.28;;;;;;;-148.88;91.86;74717.06;4973970;28;20527;-82
2022/06/30 06:16:27;;;;;;;8.57;5.03;;;;;;;-148.88;92.11;74708.94;4975078;28;20088;-81
2022/06/30 06:18:53;;;;;;;8.23;4.97;;;;;;;-148.88;90.39;74700.84;4974801;28;20473;-80
2022/06/30 06:21:18;;;;;;;10.40;5.93;;;;;;;-148.88;90.04;74694.75;4995349;28;20026;-81
2022/06/30 06:23:43;;;;;;;6.05;5.45;;;;;;;-148.88;90.36;74674.44;4995018;28;20030;-81
2022/06/30 06:26:09;;;;;;;7.45;5.57;;;;;;;-148.88;90.63;74672.41;4977239;28;20029;-81
2022/06/30 06:31:18;;;;;;;8.13;5.60;;;;;;;-148.88;90.66;74627.72;4994954;28;20108;-80
2022/06/30 06:33:45;;;;;;;10.20;6.20;;;;;;;-148.88;90.41;74609.44;4995913;28;20026;-81
2022/06/30 06:36:11;;;;;;;8.27;5.95;;;;;;;-148.88;90.39;74611.47;4978111;28;20030;-81
2022/06/30 06:38:36;;;;;;;9.52;6.30;;;;;;;-148.88;90.68;74607.41;4995282;28;20121;-81
2022/06/30 06:41:02;;;;;;;10.02;6.72;;;;;;;-148.88;89.21;74587.13;4996487;28;20101;-81
2022/06/30 06:43:27;;;;;;;8.68;6.57;;;;;;;-148.88;88.55;74579.00;4978610;28;20030;-81
2022/06/30 06:45:53;;;;;;;8.07;6.47;;;;;;;-148.88;88.95;74566.81;4994932;28;20034;-81
2022/06/30 06:48:18;;;;;;;8.52;7.03;;;;;;;-148.88;89.48;74546.50;4977265;28;20037;-80
2022/06/30 06:50:43;;;;;;;7.90;6.25;;;;;;;-148.88;89.50;74526.19;4976881;28;20018;-81
2022/06/30 06:53:09;;;;;;;8.65;6.97;;;;;;;-148.88;88.26;74514.00;4976821;28;20117;-81
2022/06/30 06:55:34;;;;;;;10.25;7.20;;;;;;;-148.88;89.34;74505.88;4994739;28;20019;-81
2022/06/30 06:57:59;;;;;;;7.85;6.60;;;;;;;-148.88;88.71;74493.72;4994097;28;20030;-80
2022/06/30 07:00:24;;;;;;;10.27;7.25;;;;;;;-148.88;88.98;74475.44;4976819;28;20476;-81
2022/06/30 07:02:50;;;;;;;9.82;7.00;;;;;;;-148.88;87.99;74461.22;4994354;28;20088;-81
2022/06/30 07:05:15;;;;;;;9.70;7.22;;;;;;;-148.88;88.73;74453.09;4977230;28;20022;-81
2022/06/30 07:07:41;;;;;;;9.75;7.18;;;;;;;-148.88;88.26;74434.81;4994434;28;20492;-81
2022/06/30 07:10:07;;;;;;;9.85;7.82;;;;;;;-148.88;86.89;74426.69;4994444;28;20500;-82
2022/06/30 07:12:33;;;;;;;10.40;7.75;;;;;;;-148.88;86.23;74400.31;4993873;28;20054;-81
2022/06/30 07:14:58;;;;;;;13.73;7.95;;;;;;;-148.88;87.26;74396.25;4994477;28;20110;-81
2022/06/30 07:17:24;;;;;;;10.02;7.97;;;;;;;-148.88;85.35;74388.13;4994388;28;20026;-81
2022/06/30 07:19:49;;;;;;;11.25;8.30;;;;;;;-148.88;85.65;74373.91;4977178;28;20037;-81
2022/06/30 07:22:16;;;;;;;12.35;8.73;;;;;;;-148.88;85.00;74361.72;4994359;28;20436;-82
2022/06/30 07:24:42;;;;;;;11.07;7.78;;;;;;;-148.88;84.80;74343.44;4994402;28;20054;-81
2022/06/30 07:27:07;;;;;;;11.32;8.32;;;;;;;-148.88;86.89;74335.31;4994242;28;20026;-82
2022/06/30 07:29:32;;;;;;;11.73;8.23;;;;;;;-148.88;85.10;74333.28;4992536;28;20109;-81
2022/06/30 07:31:58;;;;;;;11.00;8.45;;;;;;;-148.88;84.56;74313.00;4980822;28;20026;-80
2022/06/30 07:34:23;;;;;;;9.88;7.93;;;;;;;-148.88;83.93;74302.84;4980769;28;20034;-81
2022/06/30 07:36:48;;;;;;;9.93;7.85;;;;;;;-148.88;85.77;74282.53;4980714;28;20486;-82
2022/06/30 07:39:14;;;;;;;11.02;8.52;;;;;;;-148.88;83.75;74266.28;4998440;28;20081;-81
2022/06/30 07:41:39;;;;;;;12.10;8.63;;;;;;;-148.88;84.00;74258.16;4998530;28;20038;-81
2022/06/30 07:44:05;;;;;;;9.68;8.10;;;;;;;-148.88;83.72;74250.03;4998235;28;20484;-81
2022/06/30 07:46:30;;;;;;;11.90;8.48;;;;;;;-148.88;83.44;74221.63;4981885;28;20122;-82
2022/06/30 07:48:55;;;;;;;11.70;8.10;;;;;;;-148.88;81.99;74213.50;4998013;28;20031;-81
2022/06/30 07:51:21;;;;;;;9.93;8.13;;;;;;;-148.88;82.48;74205.38;4997529;28;20392;-82
2022/06/30 07:53:47;;;;;;;14.25;8.43;;;;;;;-148.88;82.37;74187.09;4997927;28;20026;-81
2022/06/30 07:56:12;;;;;;;12.10;8.43;;;;;;;-148.88;81.85;74185.06;4998361;28;20084;-81
2022/06/30 07:58:38;;;;;;;13.18;8.65;;;;;;;-148.88;80.98;74174.91;4997703;28;20022;-82
2022/06/30 08:01:03;;;;;;;10.25;7.82;;;;;;;-148.88;81.93;74164.78;4980511;28;20085;-81
2022/06/30 08:03:29;;;;;;;8.73;7.35;;;;;;;-148.88;80.82;74152.59;4998379;28;20098;-82
2022/06/30 08:05:55;;;;;;;11.65;7.95;;;;;;;-148.88;79.24;74128.22;4998462;28;20026;-81
2022/06/30 08:08:20;;;;;;;10.48;7.78;;;;;;;-148.88;80.35;74122.13;4979917;28;20026;-81
2022/06/30 08:10:45;;;;;;;10.85;8.20;;;;;;;-148.88;76.29;74107.91;4996611;28;20023;-81
2022/06/30 08:13:11;;;;;;;10.63;7.50;;;;;;;-148.88;76.82;74099.78;4997097;28;20034;-81
2022/06/30 08:15:36;;;;;;;10.57;8.50;;;;;;;-148.88;76.15;74099.78;4997070;28;20037;-81
2022/06/30 08:18:03;;;;;;;12.43;8.45;;;;;;;-148.88;76.20;74114.00;4997490;28;20105;-81
2022/06/30 08:20:29;;;;;;;9.52;8.18;;;;;;;-148.88;77.06;74091.69;4997166;28;20054;-82
2022/06/30 08:22:54;;;;;;;10.88;8.43;;;;;;;-148.88;76.68;74079.50;4980125;28;20022;-81
2022/06/30 08:25:19;;;;;;;13.02;8.40;;;;;;;-148.88;77.61;74075.44;4979848;28;20121;-81
2022/06/30 08:27:45;;;;;;;10.50;8.57;;;;;;;-148.88;76.18;74053.09;4996052;28;20041;-81
2022/06/30 08:30:10;;;;;;;11.32;8.07;;;;;;;-148.88;77.01;74047.00;4979773;28;20026;-82
2022/06/30 08:32:35;;;;;;;10.50;8.07;;;;;;;-148.88;77.20;74042.94;4997190;28;20037;-81
2022/06/30 08:35:01;;;;;;;9.32;7.55;;;;;;;-148.88;76.17;74034.81;4997416;28;20053;-81
2022/06/30 08:37:26;;;;;;;9.85;7.88;;;;;;;-148.88;78.10;74038.88;4979556;28;20026;-82
2022/06/30 08:42:37;;;;;;;12.05;8.98;;;;;;;-148.88;76.28;74014.53;4997200;28;20033;-82
2022/06/30 08:45:17;;;;;;;9.55;8.30;;;;;;;-148.88;73.91;73990.16;4996618;28;20023;-81
2022/06/30 08:47:44;;;;;;;13.88;7.80;;;;;;;-148.88;73.69;73986.09;4996801;28;20045;-81
2022/06/30 08:50:10;;;;;;;10.98;9.07;;;;;;;-148.88;71.65;73961.72;4996096;28;20022;-82
2022/06/30 08:52:54;;;;;;;13.57;9.25;;;;;;;-148.88;74.09;73977.97;4979195;28;20390;-82
2022/06/30 08:55:27;;;;;;;;;;;;;;;-148.88;77.11;73959.72;4979160;28;20112;-82
2022/06/30 08:57:58;;;;;;;10.05;8.68;;;;;;;-148.88;74.52;73941.44;4982042;28;20299;-81
2022/06/30 09:00:24;;;;;;;11.77;8.60;;;;;;;-148.88;72.38;73884.59;5013090;28;20033;-82
2022/06/30 09:02:49;;;;;;;13.52;9.20;;;;;;;-148.88;70.80;73910.97;5013260;28;20476;-81
2022/06/30 09:05:15;;;;;;;10.68;8.65;;;;;;;-148.88;71.94;73910.97;5010520;28;20026;-82
2022/06/30 09:07:41;;;;;;;10.95;8.60;;;;;;;-148.88;74.58;73896.75;5002407;28;20045;-82
2022/06/30 09:10:07;;;;;;;10.70;8.63;;;;;;;-148.88;70.88;73864.28;5001712;28;20109;-82
2022/06/30 09:12:32;;;;;;;14.38;8.38;;;;;;;-148.88;70.25;73846.00;5002220;28;20033;-82
2022/06/30 09:14:58;;;;;;;13.88;9.23;;;;;;;-148.88;73.00;73831.81;5002416;28;20101;-82
2022/06/30 09:17:26;;;;;;;12.05;9.00;;;;;;;-148.88;69.06;73819.63;5003061;28;20030;-83
2022/06/30 09:20:00;;;;;;;10.30;8.80;;;;;;;-148.88;69.78;73797.28;5001952;28;20022;-82
2022/06/30 09:22:30;;;;;;;9.68;8.10;;;;;;;-148.88;70.07;73793.22;5003586;28;20022;-83
2022/06/30 09:25:00;;;;;;;11.15;8.63;;;;;;;-148.88;66.08;73776.97;5002067;28;20034;-82
2022/06/30 09:27:29;;;;;;;9.82;8.52;;;;;;;-148.88;66.20;73783.06;4998288;28;20034;-82
2022/06/30 09:30:10;;;;;;;10.65;8.57;;;;;;;-148.88;67.21;73766.84;4977988;28;20042;-81
2022/06/30 09:33:02;;;;;;;9.50;8.45;;;;;;;-148.88;63.69;73770.91;4994538;28;20077;-81
2022/06/30 09:35:30;;;;;;;9.73;8.55;;;;;;;-148.88;64.74;73750.59;4977980;28;20026;-81
2022/06/30 09:38:08;;;;;;;9.38;8.10;;;;;;;-148.88;70.26;73716.06;4995444;28;20030;-81
2022/06/30 09:41:01;;;;;;;10.32;7.35;;;;;;;-148.88;63.71;73681.56;4999189;28;20030;-82
2022/06/30 09:43:31;;;;;;;11.65;8.30;;;;;;;-148.88;62.55;73718.09;5001198;28;20025;-82
2022/06/30 09:45:56;;;;;;;10.57;7.70;;;;;;;-148.88;59.42;73697.81;5000462;28;20563;-82
2022/06/30 09:48:26;;;;;;;9.80;8.27;;;;;;;-148.88;63.50;73703.91;4995290;23;20125;-75
2022/06/30 09:50:58;;;;;;;12.82;7.78;;;;;;;-148.88;64.61;73647.06;4994757;28;20041;-74
2022/06/30 09:53:24;;;;;;;9.88;7.80;;;;;;;-148.88;60.03;73630.81;5011262;28;20030;-74
2022/06/30 09:55:49;;;;;;;8.10;7.10;;;;;;;-148.88;59.83;73630.81;5012840;28;20029;-74
2022/06/30 09:58:34;;;;;;;8.80;7.80;;;;;;;-148.88;60.23;73616.59;5014659;28;20029;-75
2022/06/30 10:00:59;;;;;;;8.43;7.10;;;;;;;-148.88;57.57;73600.34;5014116;28;20022;-75
2022/06/30 10:03:25;;;;;;;8.80;7.90;;;;;;;-148.88;58.50;73604.41;5013958;28;20036;-75
2022/06/30 10:06:07;;;;;;;10.90;7.40;;;;;;;-148.88;61.25;73573.97;5013940;28;20028;-75
2022/06/30 10:08:32;;;;;;;8.57;7.68;;;;;;;-148.88;61.53;73545.53;5013951;28;20355;-75
2022/06/30 10:10:59;;;;;;;11.40;7.85;;;;;;;-148.88;60.16;73559.75;5013938;28;20467;-75
2022/06/30 10:13:25;;;;;;;11.02;8.25;;;;;;;-148.88;63.15;73523.22;5013883;28;20030;-75
2022/06/30 10:15:55;;;;;;;9.80;8.73;;;;;;;-148.88;57.17;73588.19;5013981;28;20033;-75
2022/06/30 10:18:26;;;;;;;11.90;8.05;;;;;;;-148.88;58.49;73569.91;5012669;28;20451;-74
2022/06/30 10:20:51;;;;;;;10.18;7.50;;;;;;;-148.88;60.61;73525.25;5014078;28;20026;-75
2022/06/30 10:23:21;;;;;;;10.65;7.45;;;;;;;-148.88;56.67;73482.63;5014090;28;20035;-74
2022/06/30 10:25:52;;;;;;;9.57;7.85;;;;;;;-148.88;54.26;73504.94;5014479;28;20390;-74
2022/06/30 10:28:22;;;;;;;9.60;7.95;;;;;;;-148.88;58.14;73551.63;5014140;28;20021;-74
2022/06/30 10:31:21;;;;;;;9.13;7.78;;;;;;;-148.88;58.59;73541.50;5028711;28;20038;-74
2022/06/30 10:34:15;;;;;;;8.38;7.30;;;;;;;-148.88;53.64;73527.28;5013821;28;20021;-75
2022/06/30 10:37:04;;;;;;;7.90;6.50;;;;;;;-148.88;51.43;73484.66;5013948;28;20059;-75
2022/06/30 10:39:46;;;;;;;8.45;6.68;;;;;;;-148.88;53.69;73474.50;5013409;28;20480;-75
2022/06/30 10:42:40;;;;;;;7.90;6.60;;;;;;;-148.88;53.51;73474.50;5013351;28;20505;-75
2022/06/30 10:45:26;;;;;;;9.13;6.55;;;;;;;-148.88;52.06;73417.66;5013554;28;20076;-75
2022/06/30 10:47:57;;;;;;;9.63;6.97;;;;;;;-148.88;51.13;73415.63;5013453;28;20037;-75
2022/06/30 10:50:42;;;;;;;8.57;6.78;;;;;;;-148.88;50.42;73360.81;5013518;28;20022;-75
2022/06/30 10:53:15;;;;;;;7.68;6.88;;;;;;;-148.88;52.83;73360.81;5013526;28;20021;-74
2022/06/30 10:56:00;;;;;;;8.02;6.15;;;;;;;-148.88;49.71;73332.41;5013222;28;20036;-75
2022/06/30 10:58:26;;;;;;;6.93;6.28;;;;;;;-148.88;50.16;73340.50;5013048;28;20068;-75
2022/06/30 11:01:03;;;;;;;7.63;6.03;;;;;;;-148.88;49.61;73283.69;5013542;28;20105;-74
2022/06/30 11:03:34;;;;;;;7.50;6.55;;;;;;;-148.88;50.84;73332.41;5013191;28;20034;-74
2022/06/30 11:06:09;;;;;;;8.35;6.45;;;;;;;-148.88;51.28;73320.22;5013486;28;20514;-74
2022/06/30 11:08:47;;;;;;;7.63;6.30;;;;;;;-148.88;48.67;73316.16;5013207;28;20029;-74
2022/06/30 11:11:24;;;;;;;7.70;6.03;;;;;;;-148.88;49.87;73389.22;5013219;28;20033;-74
2022/06/30 11:14:02;;;;;;;6.90;6.20;;;;;;;-148.88;49.16;73364.88;5013243;28;20483;-74
2022/06/30 11:16:29;;;;;;;8.68;6.60;;;;;;;-148.88;49.83;73377.06;5013058;28;20352;-75
2022/06/30 11:18:54;;;;;;;8.82;6.55;;;;;;;-148.88;49.55;73358.78;5012912;28;20056;-75
2022/06/30 11:21:20;;;;;;;6.13;5.43;;;;;;;-148.88;45.60;73316.16;5013047;28;20026;-74
2022/06/30 11:23:48;;;;;;;6.15;5.00;;;;;;;-148.88;46.20;73271.50;5012905;28;20026;-75
2022/06/30 11:29:00;;;;;;;6.73;5.43;;;;;;;-148.88;44.52;73220.75;5012816;28;20029;-75
2022/06/30 11:31:32;;;;;;;7.25;5.80;;;;;;;-148.88;45.98;73161.88;5012672;28;20049;-75
2022/06/30 11:34:01;;;;;;;6.18;5.45;;;;;;;-148.88;43.39;73123.31;5013075;28;20025;-75
2022/06/30 11:36:26;;;;;;;5.60;4.65;;;;;;;-148.88;40.25;73161.88;5011517;28;20033;-75
2022/06/30 11:39:00;;;;;;;6.13;4.68;;;;;;;-148.88;43.16;73190.31;5012895;28;20022;-75
2022/06/30 11:44:12;;;;;;;4.80;4.07;;;;;;;-148.88;42.00;73245.09;5012704;28;20033;-74